createdAt,value
2023-02-16T00:02:57.572Z,10.23
2023-02-16T00:06:21.688Z,8.10
2023-02-16T00:09:45.479Z,6.20
2023-02-16T00:13:42.718Z,7.73
2023-02-16T00:17:12.288Z,6.80
2023-02-16T00:20:36.662Z,7.77
2023-02-16T00:24:00.445Z,8.17
2023-02-16T00:27:24.062Z,9.90
2023-02-16T00:30:50.199Z,9.63
2023-02-16T00:34:30.704Z,8.20
2023-02-16T00:37:54.329Z,7.40
2023-02-16T00:41:39.045Z,6.00
2023-02-16T00:45:03.513Z,8.20
2023-02-16T00:48:27.471Z,6.07
2023-02-16T00:51:53.569Z,6.80
2023-02-16T00:55:19.839Z,5.93
2023-02-16T00:58:43.703Z,8.27
2023-02-16T01:02:07.504Z,7.93
2023-02-16T01:05:33.470Z,7.13
2023-02-16T01:09:31.840Z,7.33
2023-02-16T01:12:55.749Z,8.63
2023-02-16T01:16:23.881Z,10.00
2023-02-16T01:19:49.043Z,12.63
2023-02-16T01:23:15.287Z,7.03
2023-02-16T01:26:47.555Z,9.47
2023-02-16T01:30:18.304Z,8.27
2023-02-16T01:33:43.366Z,6.70
2023-02-16T01:37:07.224Z,6.93
2023-02-16T01:40:43.464Z,6.07
2023-02-16T01:44:16.066Z,6.20
2023-02-16T01:47:47.696Z,10.53
2023-02-16T01:51:21.362Z,7.40
2023-02-16T01:54:53.679Z,7.07
2023-02-16T01:58:32.875Z,7.73
2023-02-16T02:02:03.201Z,8.73
2023-02-16T02:05:37.814Z,6.87
2023-02-16T02:09:09.379Z,8.80
2023-02-16T02:12:44.137Z,9.30
2023-02-16T02:16:09.774Z,9.07
2023-02-16T02:19:51.341Z,10.90
2023-02-16T02:23:41.221Z,8.57
2023-02-16T02:27:23.750Z,9.23
2023-02-16T02:31:01.472Z,7.30
2023-02-16T02:34:45.599Z,6.80
2023-02-16T02:38:18.208Z,7.40
2023-02-16T02:42:05.776Z,9.67
2023-02-16T02:45:50.736Z,9.40
2023-02-16T02:49:14.505Z,7.10
2023-02-16T02:52:40.299Z,8.13
2023-02-16T02:56:25.887Z,8.20
2023-02-16T03:00:14.921Z,7.30
2023-02-16T03:03:47.855Z,9.43
2023-02-16T03:07:13.557Z,6.90
2023-02-16T03:10:56.402Z,6.63
2023-02-16T03:14:27.732Z,6.93
2023-02-16T03:18:13.589Z,7.00
2023-02-16T03:21:56.619Z,6.70
2023-02-16T03:25:40.636Z,7.93
2023-02-16T03:29:22.703Z,7.40
2023-02-16T03:32:47.506Z,7.17
2023-02-16T03:36:11.817Z,6.07
2023-02-16T03:39:57.598Z,7.00
2023-02-16T03:43:26.082Z,7.00
2023-02-16T03:46:50.515Z,8.10
2023-02-16T03:50:15.048Z,7.50
2023-02-16T03:53:38.829Z,6.80
2023-02-16T03:57:04.027Z,5.70
2023-02-16T04:00:27.883Z,8.63
2023-02-16T04:03:51.655Z,6.13
2023-02-16T04:07:15.353Z,6.30
2023-02-16T04:10:40.031Z,6.27
2023-02-16T04:14:05.499Z,5.77
2023-02-16T04:17:29.194Z,6.73
2023-02-16T04:20:54.041Z,6.00
2023-02-16T04:24:18.028Z,5.80
2023-02-16T04:27:41.905Z,7.40
2023-02-16T04:31:07.547Z,6.30
2023-02-16T04:34:31.690Z,5.60
2023-02-16T04:37:55.357Z,5.73
2023-02-16T04:41:19.035Z,6.20
2023-02-16T04:44:42.819Z,4.67
2023-02-16T04:48:08.148Z,5.40
2023-02-16T04:51:31.692Z,5.87
2023-02-16T04:54:55.292Z,6.80
2023-02-16T04:58:19.373Z,5.83
2023-02-16T05:01:44.676Z,6.63
2023-02-16T05:05:10.321Z,6.57
2023-02-16T05:08:34.466Z,7.03
2023-02-16T05:12:15.959Z,5.73
2023-02-16T05:15:40.204Z,5.77
2023-02-16T05:19:04.071Z,5.10
2023-02-16T05:22:32.370Z,5.73
2023-02-16T05:25:56.509Z,5.80
2023-02-16T05:29:20.783Z,7.00
2023-02-16T05:32:44.532Z,7.33
2023-02-16T05:36:09.723Z,5.23
2023-02-16T05:39:35.084Z,9.20
2023-02-16T05:42:58.747Z,6.03
2023-02-16T05:46:24.907Z,6.27
2023-02-16T05:49:48.966Z,5.03
2023-02-16T05:53:12.611Z,4.80
2023-02-16T05:56:38.116Z,7.00
2023-02-16T06:00:02.015Z,6.30
2023-02-16T06:03:28.607Z,5.53
2023-02-16T06:06:52.566Z,6.40
2023-02-16T06:10:16.319Z,4.93
2023-02-16T06:13:41.817Z,8.47
2023-02-16T06:17:05.317Z,5.87
2023-02-16T06:20:29.029Z,6.03
2023-02-16T06:23:53.095Z,4.83
2023-02-16T06:27:16.696Z,6.87
2023-02-16T06:30:42.602Z,5.80
2023-02-16T06:34:06.846Z,6.60
2023-02-16T06:37:30.311Z,7.30
2023-02-16T06:40:54.532Z,4.77
2023-02-16T06:44:18.538Z,6.63
2023-02-16T06:47:43.368Z,5.00
2023-02-16T06:51:07.329Z,6.03
2023-02-16T06:54:31.501Z,8.03
2023-02-16T06:57:55.220Z,7.63
2023-02-16T07:01:23.624Z,11.73
2023-02-16T07:04:48.975Z,8.70
2023-02-16T07:08:12.718Z,7.67
2023-02-16T07:11:36.485Z,6.80
2023-02-16T07:15:00.283Z,5.73
2023-02-16T07:18:23.956Z,6.77
2023-02-16T07:21:49.193Z,5.50
2023-02-16T07:25:12.747Z,7.20
2023-02-16T07:28:36.641Z,7.57
2023-02-16T07:32:00.375Z,6.40
2023-02-16T07:35:24.087Z,5.70
2023-02-16T07:38:49.059Z,5.90
2023-02-16T07:42:12.622Z,5.23
2023-02-16T07:45:40.316Z,7.17
2023-02-16T07:49:04.022Z,7.27
2023-02-16T07:52:31.191Z,5.87
2023-02-16T07:55:56.624Z,6.60
2023-02-16T07:59:20.210Z,6.50
2023-02-16T08:02:43.852Z,5.67
2023-02-16T08:06:09.262Z,6.97
2023-02-16T08:09:34.118Z,5.90
2023-02-16T08:12:59.058Z,5.10
2023-02-16T08:16:26.053Z,8.40
2023-02-16T08:19:50.631Z,4.83
2023-02-16T08:23:14.157Z,5.97
2023-02-16T08:26:41.167Z,6.63
2023-02-16T08:30:12.718Z,5.80
2023-02-16T08:33:36.686Z,4.20
2023-02-16T08:37:00.343Z,4.20
2023-02-16T08:40:24.841Z,4.47
2023-02-16T08:43:49.227Z,4.40
2023-02-16T08:47:16.983Z,5.53
2023-02-16T08:50:47.480Z,6.50
2023-02-16T08:54:16.738Z,6.10
2023-02-16T08:57:40.303Z,5.53
2023-02-16T09:01:08.189Z,4.50
2023-02-16T09:04:33.458Z,4.67
2023-02-16T09:07:57.536Z,5.13
2023-02-16T09:11:22.702Z,4.40
2023-02-16T09:14:46.744Z,4.80
2023-02-16T09:18:10.516Z,5.00
2023-02-16T09:21:35.381Z,4.83
2023-02-16T09:24:59.540Z,4.20
2023-02-16T09:28:23.056Z,4.07
2023-02-16T09:31:47.649Z,4.30
2023-02-16T09:35:11.113Z,4.80
2023-02-16T09:38:36.721Z,4.07
2023-02-16T09:42:20.663Z,4.30
2023-02-16T09:45:51.217Z,4.97
2023-02-16T09:49:25.848Z,6.33
2023-02-16T09:52:56.751Z,5.10
2023-02-16T09:56:33.222Z,5.63
2023-02-16T10:00:08.629Z,6.83
2023-02-16T10:03:55.135Z,5.67
2023-02-16T10:07:33.418Z,6.80
2023-02-16T10:11:28.450Z,4.83
2023-02-16T10:15:01.411Z,4.93
2023-02-16T10:18:33.417Z,4.93
2023-02-16T10:22:04.469Z,4.43
2023-02-16T10:25:42.787Z,5.07
2023-02-16T10:29:14.217Z,5.10
2023-02-16T10:32:56.184Z,5.00
2023-02-16T10:36:36.655Z,10.17
2023-02-16T10:40:32.298Z,4.30
2023-02-16T10:44:04.417Z,4.80
2023-02-16T10:47:36.728Z,5.50
2023-02-16T10:51:07.189Z,5.40
2023-02-16T10:54:33.495Z,4.90
2023-02-16T10:58:02.814Z,5.60
2023-02-16T11:01:39.498Z,5.53
2023-02-16T11:05:06.442Z,4.90
2023-02-16T11:08:50.186Z,5.13
2023-02-16T11:12:26.866Z,5.30
2023-02-16T11:15:55.988Z,5.43
2023-02-16T11:19:24.321Z,5.30
2023-02-16T11:22:48.430Z,5.33
2023-02-16T11:26:26.837Z,4.90
2023-02-16T11:29:51.423Z,5.80
2023-02-16T11:33:24.923Z,6.07
2023-02-16T11:36:49.403Z,7.57
2023-02-16T11:40:24.802Z,4.23
2023-02-16T11:43:49.708Z,4.10
2023-02-16T11:47:25.831Z,4.20
2023-02-16T11:50:59.451Z,5.63
2023-02-16T11:54:24.543Z,4.20
2023-02-16T11:57:48.985Z,4.07
2023-02-16T12:01:28.239Z,6.43
2023-02-16T12:05:22.156Z,4.90
2023-02-16T12:09:04.103Z,3.80
2023-02-16T12:12:42.999Z,4.03
2023-02-16T12:16:25.832Z,3.80
2023-02-16T12:20:01.662Z,3.93
2023-02-16T12:23:39.726Z,4.00
2023-02-16T12:27:07.051Z,3.87
2023-02-16T12:30:47.078Z,3.03
2023-02-16T12:34:31.180Z,3.47
2023-02-16T12:38:07.171Z,3.47
2023-02-16T12:41:52.013Z,3.70
2023-02-16T12:45:21.478Z,3.13
2023-02-16T12:48:53.836Z,3.77
2023-02-16T12:52:37.339Z,3.50
2023-02-16T12:56:04.782Z,2.77
2023-02-16T12:59:40.082Z,3.80
2023-02-16T13:03:27.266Z,3.17
2023-02-16T13:07:00.356Z,3.03
2023-02-16T13:10:34.084Z,4.37
2023-02-16T13:14:04.549Z,3.73
2023-02-16T13:17:36.655Z,3.90
2023-02-16T13:21:10.961Z,2.57
2023-02-16T13:24:55.254Z,2.60
2023-02-16T13:29:03.149Z,2.87
2023-02-16T13:33:04.062Z,3.57
2023-02-16T13:36:55.041Z,3.73
2023-02-16T13:40:48.807Z,2.47
2023-02-16T13:44:20.063Z,3.37
2023-02-16T13:47:44.236Z,4.70
2023-02-16T13:51:16.660Z,3.00
2023-02-16T13:54:43.682Z,2.97
2023-02-16T13:58:29.577Z,2.60
2023-02-16T14:01:55.868Z,2.43
2023-02-16T14:05:34.857Z,3.40
2023-02-16T14:09:48.910Z,3.93
2023-02-16T14:13:13.853Z,2.90
2023-02-16T14:16:37.614Z,2.97
2023-02-16T14:20:06.867Z,3.50
2023-02-16T14:23:35.510Z,2.77
2023-02-16T14:27:01.564Z,3.50
2023-02-16T14:30:33.770Z,3.97
2023-02-16T14:34:10.067Z,2.57
2023-02-16T14:37:41.316Z,3.00
2023-02-16T14:41:09.050Z,3.10
2023-02-16T14:44:59.349Z,2.60
2023-02-16T14:49:09.275Z,3.93
2023-02-16T14:53:18.229Z,3.60
2023-02-16T14:56:46.510Z,2.93
2023-02-16T15:00:24.211Z,2.90
2023-02-16T15:03:51.560Z,3.50
2023-02-16T15:07:18.285Z,2.87
2023-02-16T15:10:47.151Z,3.00
2023-02-16T15:14:15.678Z,3.80
2023-02-16T15:17:44.962Z,4.30
2023-02-16T15:21:20.636Z,3.10
2023-02-16T15:24:44.278Z,3.50
2023-02-16T15:28:23.007Z,3.40
2023-02-16T15:31:46.842Z,3.93
2023-02-16T15:35:13.728Z,3.10
2023-02-16T15:38:40.603Z,2.57
2023-02-16T15:42:21.678Z,4.73
2023-02-16T15:45:52.505Z,3.50
2023-02-16T15:49:22.868Z,4.80
2023-02-16T15:52:47.617Z,2.93
2023-02-16T15:56:32.379Z,5.00
2023-02-16T16:00:00.219Z,3.47
2023-02-16T16:03:25.347Z,2.23
2023-02-16T16:06:51.381Z,3.17
2023-02-16T16:10:19.810Z,4.27
2023-02-16T16:13:44.035Z,2.60
2023-02-16T16:17:13.803Z,1.60
2023-02-16T16:20:41.938Z,1.97
2023-02-16T16:24:10.336Z,1.50
2023-02-16T16:27:37.463Z,1.70
2023-02-16T16:31:09.660Z,1.50
2023-02-16T16:34:37.554Z,1.57
2023-02-16T16:38:03.492Z,1.90
2023-02-16T16:41:29.928Z,1.63
2023-02-16T16:45:06.984Z,2.00
2023-02-16T16:48:37.655Z,8.00
2023-02-16T16:52:01.241Z,1.30
2023-02-16T16:55:32.222Z,2.50
2023-02-16T16:58:58.669Z,1.83
2023-02-16T17:02:22.510Z,1.90
2023-02-16T17:05:46.646Z,1.60
2023-02-16T17:09:10.684Z,1.50
2023-02-16T17:12:36.170Z,1.40
2023-02-16T17:16:05.431Z,1.43
2023-02-16T17:19:29.464Z,1.30
2023-02-16T17:22:53.208Z,1.70
2023-02-16T17:26:17.364Z,1.63
2023-02-16T17:29:44.746Z,1.80
2023-02-16T17:33:09.690Z,1.83
2023-02-16T17:36:34.324Z,2.10
2023-02-16T17:39:58.196Z,5.83
2023-02-16T17:43:24.367Z,2.20
2023-02-16T17:46:49.334Z,1.60
2023-02-16T17:50:15.564Z,1.60
2023-02-16T17:53:41.116Z,1.60
2023-02-16T17:57:05.431Z,1.70
2023-02-16T18:00:29.315Z,1.53
2023-02-16T18:03:54.181Z,1.90
2023-02-16T18:07:20.144Z,2.07
2023-02-16T18:10:47.385Z,1.60
2023-02-16T18:14:12.292Z,3.47
2023-02-16T18:17:35.729Z,2.00
2023-02-16T18:21:00.709Z,3.60
2023-02-16T18:24:24.377Z,2.87
2023-02-16T18:27:48.046Z,2.27
2023-02-16T18:31:12.923Z,1.70
2023-02-16T18:34:37.532Z,1.40
2023-02-16T18:38:02.702Z,1.77
2023-02-16T18:41:26.278Z,1.40
2023-02-16T18:44:50.646Z,1.60
2023-02-16T18:48:14.819Z,2.00
2023-02-16T18:51:38.543Z,1.67
2023-02-16T18:55:04.157Z,1.83
2023-02-16T18:58:27.782Z,2.03
2023-02-16T19:01:57.073Z,1.60
2023-02-16T19:05:21.310Z,1.70
2023-02-16T19:08:44.921Z,2.77
2023-02-16T19:12:10.040Z,2.27
2023-02-16T19:15:33.608Z,1.90
2023-02-16T19:18:57.314Z,2.83
2023-02-16T19:22:21.513Z,2.17
2023-02-16T19:25:45.116Z,2.07
2023-02-16T19:29:10.239Z,1.60
2023-02-16T19:32:34.419Z,1.93
2023-02-16T19:36:04.492Z,2.00
2023-02-16T19:39:28.525Z,2.30
2023-02-16T19:42:52.997Z,2.93
2023-02-16T19:46:18.779Z,2.33
2023-02-16T19:49:42.678Z,3.10
2023-02-16T19:53:07.144Z,3.00
2023-02-16T19:56:31.652Z,1.97
2023-02-16T19:59:55.533Z,2.73
2023-02-16T20:03:20.872Z,2.07
2023-02-16T20:06:45.500Z,2.13
2023-02-16T20:10:10.190Z,2.73
2023-02-16T20:13:33.967Z,1.90
2023-02-16T20:16:59.255Z,3.60
2023-02-16T20:20:24.835Z,2.43
2023-02-16T20:23:49.998Z,1.93
2023-02-16T20:27:15.294Z,1.47
2023-02-16T20:30:39.350Z,1.90
2023-02-16T20:34:04.356Z,3.40
2023-02-16T20:37:30.349Z,1.70
2023-02-16T20:40:54.224Z,1.93
2023-02-16T20:44:18.439Z,1.97
2023-02-16T20:47:42.579Z,3.23
2023-02-16T20:51:08.806Z,2.73
2023-02-16T20:54:34.514Z,2.10
2023-02-16T20:57:58.422Z,2.63
2023-02-16T21:01:26.053Z,2.20
2023-02-16T21:04:49.936Z,1.97
2023-02-16T21:08:13.922Z,1.80
2023-02-16T21:11:40.066Z,1.87
2023-02-16T21:15:03.824Z,1.80
2023-02-16T21:18:27.878Z,2.00
2023-02-16T21:21:52.308Z,1.90
2023-02-16T21:25:15.971Z,2.20
2023-02-16T21:28:41.243Z,1.80
2023-02-16T21:32:05.778Z,1.90
2023-02-16T21:35:29.845Z,1.73
2023-02-16T21:38:53.453Z,2.20
2023-02-16T21:42:16.100Z,1.80
2023-02-16T21:45:40.970Z,1.90
2023-02-16T21:49:05.481Z,2.27
2023-02-16T21:52:29.404Z,1.80
2023-02-16T21:56:10.790Z,2.10
2023-02-16T21:59:35.056Z,1.77
2023-02-16T22:03:00.066Z,2.40
2023-02-16T22:06:25.495Z,1.90
2023-02-16T22:09:48.979Z,3.90
2023-02-16T22:13:12.758Z,1.90
2023-02-16T22:16:39.341Z,2.33
2023-02-16T22:20:05.150Z,2.20
2023-02-16T22:23:28.752Z,2.20
2023-02-16T22:26:52.654Z,2.70
2023-02-16T22:30:16.754Z,1.50
2023-02-16T22:33:40.276Z,1.40
2023-02-16T22:37:05.247Z,1.90
2023-02-16T22:40:28.673Z,1.73
2023-02-16T22:43:54.911Z,1.93
2023-02-16T22:47:18.360Z,1.60
2023-02-16T22:50:41.785Z,4.93
2023-02-16T22:54:08.925Z,2.50
2023-02-16T22:57:36.226Z,2.00
2023-02-16T23:01:00.747Z,1.63
2023-02-16T23:04:24.372Z,1.70
2023-02-16T23:07:47.928Z,2.30
2023-02-16T23:11:12.915Z,4.73
2023-02-16T23:14:38.946Z,1.80
2023-02-16T23:18:02.698Z,2.60
2023-02-16T23:21:30.275Z,3.30
2023-02-16T23:25:08.189Z,3.03
2023-02-16T23:28:33.100Z,1.90
2023-02-16T23:31:56.687Z,2.67
2023-02-16T23:35:20.820Z,1.50
2023-02-16T23:38:44.426Z,2.00
2023-02-16T23:42:07.929Z,1.97
2023-02-16T23:45:32.795Z,3.70
2023-02-16T23:48:56.440Z,2.43
2023-02-16T23:52:20.132Z,1.83
2023-02-16T23:55:43.649Z,1.70
2023-02-16T23:59:07.162Z,2.27
